sensor_id;sensor_type;location;lat;lon;timestamp;pressure;altitude;pressure_sealevel;temperature;humidity
55656;BME280;41530;52.382;5.270;2023-08-01T00:00:40;100012.13;;;24.22;45.58
55656;BME280;41530;52.382;5.270;2023-08-01T00:03:06;100008.44;;;24.23;45.76
55656;BME280;41530;52.382;5.270;2023-08-01T00:05:33;100009.44;;;24.22;45.84
55656;BME280;41530;52.382;5.270;2023-08-01T00:08:00;100003.25;;;24.21;45.69
55656;BME280;41530;52.382;5.270;2023-08-01T00:10:28;99998.06;;;24.20;45.74
55656;BME280;41530;52.382;5.270;2023-08-01T00:12:55;100003.25;;;24.21;45.61
55656;BME280;41530;52.382;5.270;2023-08-01T00:15:22;99993.53;;;24.20;45.63
55656;BME280;41530;52.382;5.270;2023-08-01T00:17:48;99993.75;;;24.19;45.62
55656;BME280;41530;52.382;5.270;2023-08-01T00:20:15;99993.75;;;24.19;45.55
55656;BME280;41530;52.382;5.270;2023-08-01T00:22:42;99994.56;;;24.19;45.61
55656;BME280;41530;52.382;5.270;2023-08-01T00:25:09;99992.91;;;24.18;45.70
55656;BME280;41530;52.382;5.270;2023-08-01T00:27:36;99997.69;;;24.16;45.75
55656;BME280;41530;52.382;5.270;2023-08-01T00:30:07;99989.63;;;24.16;45.63
55656;BME280;41530;52.382;5.270;2023-08-01T00:32:35;99982.59;;;24.15;45.85
55656;BME280;41530;52.382;5.270;2023-08-01T00:35:02;99989.00;;;24.14;45.61
55656;BME280;41530;52.382;5.270;2023-08-01T00:37:29;99978.25;;;24.14;45.74
55656;BME280;41530;52.382;5.270;2023-08-01T00:39:56;99977.44;;;24.13;45.57
55656;BME280;41530;52.382;5.270;2023-08-01T00:42:22;99971.22;;;24.13;45.69
55656;BME280;41530;52.382;5.270;2023-08-01T00:44:49;99968.53;;;24.13;45.75
55656;BME280;41530;52.382;5.270;2023-08-01T00:47:18;99970.41;;;24.12;45.64
55656;BME280;41530;52.382;5.270;2023-08-01T00:49:45;99960.13;;;24.09;45.73
55656;BME280;41530;52.382;5.270;2023-08-01T00:52:12;99960.69;;;24.11;45.58
55656;BME280;41530;52.382;5.270;2023-08-01T00:54:39;99954.50;;;24.11;45.63
55656;BME280;41530;52.382;5.270;2023-08-01T00:57:06;99950.97;;;24.10;45.67
55656;BME280;41530;52.382;5.270;2023-08-01T00:59:33;99944.00;;;24.09;45.74
55656;BME280;41530;52.382;5.270;2023-08-01T01:02:01;99944.19;;;24.08;45.73
55656;BME280;41530;52.382;5.270;2023-08-01T01:04:28;99942.56;;;24.07;45.67
55656;BME280;41530;52.382;5.270;2023-08-01T01:07:02;99938.00;;;24.07;45.68
55656;BME280;41530;52.382;5.270;2023-08-01T01:09:30;99931.81;;;24.07;45.65
55656;BME280;41530;52.382;5.270;2023-08-01T01:12:00;99933.88;;;24.05;45.58
55656;BME280;41530;52.382;5.270;2023-08-01T01:14:28;99941.13;;;24.04;45.54
55656;BME280;41530;52.382;5.270;2023-08-01T01:16:55;99935.75;;;24.04;45.73
55656;BME280;41530;52.382;5.270;2023-08-01T01:19:22;99927.06;;;24.02;45.77
55656;BME280;41530;52.382;5.270;2023-08-01T01:21:49;99925.22;;;24.03;45.70
55656;BME280;41530;52.382;5.270;2023-08-01T01:24:17;99926.84;;;24.04;45.74
55656;BME280;41530;52.382;5.270;2023-08-01T01:26:46;99927.91;;;24.03;45.63
55656;BME280;41530;52.382;5.270;2023-08-01T01:29:15;99923.78;;;24.00;45.78
55656;BME280;41530;52.382;5.270;2023-08-01T01:31:43;99926.25;;;24.02;45.66
55656;BME280;41530;52.382;5.270;2023-08-01T01:34:10;99929.97;;;24.01;45.59
55656;BME280;41530;52.382;5.270;2023-08-01T01:36:36;99924.19;;;23.97;45.57
55656;BME280;41530;52.382;5.270;2023-08-01T01:39:03;99932.03;;;23.99;45.62
55656;BME280;41530;52.382;5.270;2023-08-01T01:41:30;99928.53;;;23.98;45.66
55656;BME280;41530;52.382;5.270;2023-08-01T01:43:57;99920.72;;;23.97;45.66
55656;BME280;41530;52.382;5.270;2023-08-01T01:46:23;99913.91;;;23.94;45.82
55656;BME280;41530;52.382;5.270;2023-08-01T01:48:50;99926.31;;;23.95;45.67
55656;BME280;41530;52.382;5.270;2023-08-01T01:51:17;99916.59;;;23.94;45.50
55656;BME280;41530;52.382;5.270;2023-08-01T01:53:43;99923.63;;;23.95;45.65
55656;BME280;41530;52.382;5.270;2023-08-01T01:56:10;99913.28;;;23.92;45.68
55656;BME280;41530;52.382;5.270;2023-08-01T01:58:37;99915.16;;;23.92;45.84
55656;BME280;41530;52.382;5.270;2023-08-01T02:01:03;99914.13;;;23.93;45.61
55656;BME280;41530;52.382;5.270;2023-08-01T02:03:30;99917.84;;;23.92;45.70
55656;BME280;41530;52.382;5.270;2023-08-01T02:05:57;99915.16;;;23.92;45.70
55656;BME280;41530;52.382;5.270;2023-08-01T02:08:23;99909.19;;;23.90;45.73
55656;BME280;41530;52.382;5.270;2023-08-01T02:10:50;99911.03;;;23.89;45.59
55656;BME280;41530;52.382;5.270;2023-08-01T02:13:16;99909.19;;;23.90;45.52
55656;BME280;41530;52.382;5.270;2023-08-01T02:15:43;99916.41;;;23.89;45.57
55656;BME280;41530;52.382;5.270;2023-08-01T02:18:10;99907.75;;;23.87;45.68
55656;BME280;41530;52.382;5.270;2023-08-01T02:20:37;99920.13;;;23.88;45.74
55656;BME280;41530;52.382;5.270;2023-08-01T02:23:04;99909.59;;;23.87;45.47
55656;BME280;41530;52.382;5.270;2023-08-01T02:25:31;99914.16;;;23.86;45.64
55656;BME280;41530;52.382;5.270;2023-08-01T02:27:57;99913.31;;;23.86;45.67
55656;BME280;41530;52.382;5.270;2023-08-01T02:30:24;99912.50;;;23.85;45.55
55656;BME280;41530;52.382;5.270;2023-08-01T02:32:51;99903.03;;;23.83;45.71
55656;BME280;41530;52.382;5.270;2023-08-01T02:35:18;99901.97;;;23.84;45.69
55656;BME280;41530;52.382;5.270;2023-08-01T02:37:44;99906.53;;;23.83;45.52
55656;BME280;41530;52.382;5.270;2023-08-01T02:40:11;99902.22;;;23.82;45.80
55656;BME280;41530;52.382;5.270;2023-08-01T02:42:38;99902.22;;;23.82;45.82
55656;BME280;41530;52.382;5.270;2023-08-01T02:45:05;99901.19;;;23.83;45.71
55656;BME280;41530;52.382;5.270;2023-08-01T02:47:32;99904.06;;;23.82;45.63
55656;BME280;41530;52.382;5.270;2023-08-01T02:49:58;99904.06;;;23.82;45.80
55656;BME280;41530;52.382;5.270;2023-08-01T02:52:25;99905.09;;;23.80;45.69
55656;BME280;41530;52.382;5.270;2023-08-01T02:54:52;99908.00;;;23.79;45.78
55656;BME280;41530;52.382;5.270;2023-08-01T02:57:18;99912.34;;;23.80;45.88
55656;BME280;41530;52.382;5.270;2023-08-01T02:59:45;99911.50;;;23.79;45.74
55656;BME280;41530;52.382;5.270;2023-08-01T03:02:12;99902.44;;;23.80;45.59
55656;BME280;41530;52.382;5.270;2023-08-01T03:04:39;99902.03;;;23.77;45.56
55656;BME280;41530;52.382;5.270;2023-08-01T03:07:13;99916.06;;;23.79;45.77
55656;BME280;41530;52.382;5.270;2023-08-01T03:09:39;99903.66;;;23.78;45.71
55656;BME280;41530;52.382;5.270;2023-08-01T03:12:06;99902.84;;;23.77;45.66
55656;BME280;41530;52.382;5.270;2023-08-01T03:14:33;99900.38;;;23.76;45.81
55656;BME280;41530;52.382;5.270;2023-08-01T03:17:00;99905.75;;;23.76;45.88
55656;BME280;41530;52.382;5.270;2023-08-01T03:19:29;99897.91;;;23.74;45.67
55656;BME280;41530;52.382;5.270;2023-08-01T03:21:56;99902.22;;;23.75;45.69
55656;BME280;41530;52.382;5.270;2023-08-01T03:24:23;99899.75;;;23.74;45.76
55656;BME280;41530;52.382;5.270;2023-08-01T03:26:50;99898.09;;;23.73;45.68
55656;BME280;41530;52.382;5.270;2023-08-01T03:29:17;99898.94;;;23.73;45.71
55656;BME280;41530;52.382;5.270;2023-08-01T03:31:43;99898.09;;;23.73;45.63
55656;BME280;41530;52.382;5.270;2023-08-01T03:34:10;99902.44;;;23.74;45.70
55656;BME280;41530;52.382;5.270;2023-08-01T03:36:37;99898.31;;;23.71;45.85
55656;BME280;41530;52.382;5.270;2023-08-01T03:39:04;99899.97;;;23.72;45.63
55656;BME280;41530;52.382;5.270;2023-08-01T03:41:32;99904.50;;;23.72;45.60
55656;BME280;41530;52.382;5.270;2023-08-01T03:43:59;99896.47;;;23.72;45.76
55656;BME280;41530;52.382;5.270;2023-08-01T03:46:26;99900.19;;;23.71;45.68
55656;BME280;41530;52.382;5.270;2023-08-01T03:48:52;99903.09;;;23.69;45.67
55656;BME280;41530;52.382;5.270;2023-08-01T03:51:19;99908.25;;;23.71;45.70
55656;BME280;41530;52.382;5.270;2023-08-01T03:53:47;99898.56;;;23.70;45.57
55656;BME280;41530;52.382;5.270;2023-08-01T03:56:25;99897.75;;;23.69;45.62
55656;BME280;41530;52.382;5.270;2023-08-01T03:58:51;99896.91;;;23.69;45.64
55656;BME280;41530;52.382;5.270;2023-08-01T04:01:18;99891.75;;;23.67;45.55
55656;BME280;41530;52.382;5.270;2023-08-01T04:03:45;99893.41;;;23.68;45.51
55656;BME280;41530;52.382;5.270;2023-08-01T04:06:11;99896.31;;;23.67;45.80
55656;BME280;41530;52.382;5.270;2023-08-01T04:08:41;99895.47;;;23.66;45.63
55656;BME280;41530;52.382;5.270;2023-08-01T04:11:08;99900.84;;;23.66;45.68
55656;BME280;41530;52.382;5.270;2023-08-01T04:13:34;99895.47;;;23.66;45.75
55656;BME280;41530;52.382;5.270;2023-08-01T04:16:01;99894.66;;;23.66;45.66
55656;BME280;41530;52.382;5.270;2023-08-01T04:18:28;99896.50;;;23.65;45.62
55656;BME280;41530;52.382;5.270;2023-08-01T04:20:54;99893.00;;;23.65;45.62
55656;BME280;41530;52.382;5.270;2023-08-01T04:23:21;99894.88;;;23.64;45.67
55656;BME280;41530;52.382;5.270;2023-08-01T04:25:48;99893.00;;;23.65;45.81
55656;BME280;41530;52.382;5.270;2023-08-01T04:28:14;99895.69;;;23.65;45.71
55656;BME280;41530;52.382;5.270;2023-08-01T04:30:41;99889.72;;;23.63;45.48
55656;BME280;41530;52.382;5.270;2023-08-01T04:33:08;99893.22;;;23.63;45.68
55656;BME280;41530;52.382;5.270;2023-08-01T04:35:34;99889.72;;;23.63;45.61
55656;BME280;41530;52.382;5.270;2023-08-01T04:38:01;99895.06;;;23.63;45.64
55656;BME280;41530;52.382;5.270;2023-08-01T04:40:28;99894.25;;;23.62;45.49
55656;BME280;41530;52.382;5.270;2023-08-01T04:42:54;99890.53;;;23.63;45.68
55656;BME280;41530;52.382;5.270;2023-08-01T04:45:21;99899.41;;;23.64;45.89
55656;BME280;41530;52.382;5.270;2023-08-01T04:47:48;99898.78;;;23.62;45.53
55656;BME280;41530;52.382;5.270;2023-08-01T04:50:14;99892.38;;;23.63;45.50
55656;BME280;41530;52.382;5.270;2023-08-01T04:52:41;99887.22;;;23.61;45.59
55656;BME280;41530;52.382;5.270;2023-08-01T04:55:08;99899.00;;;23.60;45.78
55656;BME280;41530;52.382;5.270;2023-08-01T04:57:35;99899.00;;;23.60;45.64
55656;BME280;41530;52.382;5.270;2023-08-01T05:00:03;99893.63;;;23.60;45.65
55656;BME280;41530;52.382;5.270;2023-08-01T05:02:29;99901.69;;;23.60;45.71
55656;BME280;41530;52.382;5.270;2023-08-01T05:04:56;99899.84;;;23.61;45.69
55656;BME280;41530;52.382;5.270;2023-08-01T05:07:23;99905.19;;;23.61;45.50
55656;BME280;41530;52.382;5.270;2023-08-01T05:09:49;99908.91;;;23.60;45.76
55656;BME280;41530;52.382;5.270;2023-08-01T05:12:16;99901.69;;;23.60;45.46
55656;BME280;41530;52.382;5.270;2023-08-01T05:14:43;99911.59;;;23.60;45.63
55656;BME280;41530;52.382;5.270;2023-08-01T05:17:09;99908.09;;;23.59;45.60
55656;BME280;41530;52.382;5.270;2023-08-01T05:19:36;99899.00;;;23.60;45.73
55656;BME280;41530;52.382;5.270;2023-08-01T05:22:03;99896.31;;;23.60;45.63
55656;BME280;41530;52.382;5.270;2023-08-01T05:24:30;99903.56;;;23.60;45.82
55656;BME280;41530;52.382;5.270;2023-08-01T05:26:56;99897.34;;;23.59;45.70
55656;BME280;41530;52.382;5.270;2023-08-01T05:29:23;99899.84;;;23.61;45.62
55656;BME280;41530;52.382;5.270;2023-08-01T05:31:49;99904.38;;;23.60;45.52
55656;BME280;41530;52.382;5.270;2023-08-01T05:34:16;99902.50;;;23.61;45.79
55656;BME280;41530;52.382;5.270;2023-08-01T05:36:43;99903.13;;;23.63;45.59
55656;BME280;41530;52.382;5.270;2023-08-01T05:39:09;99905.00;;;23.62;45.54
55656;BME280;41530;52.382;5.270;2023-08-01T05:41:36;99906.84;;;23.62;45.47
55656;BME280;41530;52.382;5.270;2023-08-01T05:44:03;99906.84;;;23.62;45.59
55656;BME280;41530;52.382;5.270;2023-08-01T05:46:30;99910.56;;;23.61;45.63
55656;BME280;41530;52.382;5.270;2023-08-01T05:48:57;99920.88;;;23.64;45.65
55656;BME280;41530;52.382;5.270;2023-08-01T05:51:24;99912.22;;;23.62;45.70
55656;BME280;41530;52.382;5.270;2023-08-01T05:53:50;99918.22;;;23.64;45.76
55656;BME280;41530;52.382;5.270;2023-08-01T05:56:17;99922.53;;;23.65;45.55
55656;BME280;41530;52.382;5.270;2023-08-01T05:58:44;99919.03;;;23.64;45.55
55656;BME280;41530;52.382;5.270;2023-08-01T06:01:11;99935.75;;;23.66;45.58
55656;BME280;41530;52.382;5.270;2023-08-01T06:03:38;99931.41;;;23.65;45.77
55656;BME280;41530;52.382;5.270;2023-08-01T06:06:05;99933.91;;;23.67;45.72
55656;BME280;41530;52.382;5.270;2023-08-01T06:08:31;99932.25;;;23.66;45.67
55656;BME280;41530;52.382;5.270;2023-08-01T06:10:58;99936.56;;;23.67;45.58
55656;BME280;41530;52.382;5.270;2023-08-01T06:13:25;99943.59;;;23.68;45.64
55656;BME280;41530;52.382;5.270;2023-08-01T06:15:52;99947.31;;;23.67;45.68
55656;BME280;41530;52.382;5.270;2023-08-01T06:18:19;99939.47;;;23.65;45.47
55656;BME280;41530;52.382;5.270;2023-08-01T06:20:46;99946.28;;;23.68;45.53
55656;BME280;41530;52.382;5.270;2023-08-01T06:23:13;99946.28;;;23.68;45.50
55656;BME280;41530;52.382;5.270;2023-08-01T06:25:40;99943.81;;;23.66;45.75
55656;BME280;41530;52.382;5.270;2023-08-01T06:28:06;99945.47;;;23.67;45.60
55656;BME280;41530;52.382;5.270;2023-08-01T06:30:33;99940.09;;;23.67;45.53
55656;BME280;41530;52.382;5.270;2023-08-01T06:33:00;99948.97;;;23.68;45.51
55656;BME280;41530;52.382;5.270;2023-08-01T06:35:26;99946.50;;;23.66;45.74
55656;BME280;41530;52.382;5.270;2023-08-01T06:37:53;99949.78;;;23.68;45.62
55656;BME280;41530;52.382;5.270;2023-08-01T06:40:20;99950.00;;;23.67;45.79
55656;BME280;41530;52.382;5.270;2023-08-01T06:42:46;99958.69;;;23.69;45.63
55656;BME280;41530;52.382;5.270;2023-08-01T06:45:13;99950.38;;;23.70;45.74
55656;BME280;41530;52.382;5.270;2023-08-01T06:47:40;99947.88;;;23.75;45.52
55656;BME280;41530;52.382;5.270;2023-08-01T06:50:07;99954.91;;;23.76;45.60
55656;BME280;41530;52.382;5.270;2023-08-01T06:52:33;99942.09;;;23.78;45.41
55656;BME280;41530;52.382;5.270;2023-08-01T06:55:00;99946.44;;;23.79;45.50
55656;BME280;41530;52.382;5.270;2023-08-01T06:57:27;99937.13;;;23.82;45.45
55656;BME280;41530;52.382;5.270;2023-08-01T06:59:53;99947.63;;;23.84;45.70
55656;BME280;41530;52.382;5.270;2023-08-01T07:02:20;99948.84;;;23.88;45.63
55656;BME280;41530;52.382;5.270;2023-08-01T07:04:47;99951.31;;;23.89;45.48
55656;BME280;41530;52.382;5.270;2023-08-01T07:07:13;99944.31;;;23.88;45.41
55656;BME280;41530;52.382;5.270;2023-08-01T07:09:40;99944.91;;;23.90;45.29
55656;BME280;41530;52.382;5.270;2023-08-01T07:12:07;99953.59;;;23.92;45.45
55656;BME280;41530;52.382;5.270;2023-08-01T07:14:34;99953.16;;;23.95;45.43
55656;BME280;41530;52.382;5.270;2023-08-01T07:17:00;99958.53;;;23.95;45.46
55656;BME280;41530;52.382;5.270;2023-08-01T07:19:27;99951.06;;;23.97;45.53
55656;BME280;41530;52.382;5.270;2023-08-01T07:21:54;99960.56;;;24.00;45.28
55656;BME280;41530;52.382;5.270;2023-08-01T07:24:21;99956.00;;;24.00;45.32
55656;BME280;41530;52.382;5.270;2023-08-01T07:26:47;99947.94;;;24.00;45.29
55656;BME280;41530;52.382;5.270;2023-08-01T07:29:14;99960.97;;;24.03;45.24
55656;BME280;41530;52.382;5.270;2023-08-01T07:31:42;99960.13;;;24.03;45.19
55656;BME280;41530;52.382;5.270;2023-08-01T07:34:12;99966.34;;;24.03;45.15
55656;BME280;41530;52.382;5.270;2023-08-01T07:36:39;99969.63;;;24.05;45.44
55656;BME280;41530;52.382;5.270;2023-08-01T07:39:06;99971.50;;;24.05;45.35
55656;BME280;41530;52.382;5.270;2023-08-01T07:41:33;99969.63;;;24.05;45.28
55656;BME280;41530;52.382;5.270;2023-08-01T07:44:01;99971.28;;;24.06;45.28
55656;BME280;41530;52.382;5.270;2023-08-01T07:46:29;99971.91;;;24.08;45.26
55656;BME280;41530;52.382;5.270;2023-08-01T07:48:56;99974.38;;;24.10;45.26
55656;BME280;41530;52.382;5.270;2023-08-01T07:51:23;99975.16;;;24.10;45.27
55656;BME280;41530;52.382;5.270;2023-08-01T07:53:51;99977.44;;;24.13;45.20
55656;BME280;41530;52.382;5.270;2023-08-01T07:56:19;99974.13;;;24.11;45.28
55656;BME280;41530;52.382;5.270;2023-08-01T07:58:46;99980.72;;;24.15;45.09
55656;BME280;41530;52.382;5.270;2023-08-01T08:01:12;99979.69;;;24.16;45.25
55656;BME280;41530;52.382;5.270;2023-08-01T08:03:39;99984.84;;;24.18;45.22
55656;BME280;41530;52.382;5.270;2023-08-01T08:06:06;99975.97;;;24.17;45.27
55656;BME280;41530;52.382;5.270;2023-08-01T08:08:33;99984.03;;;24.17;45.22
55656;BME280;41530;52.382;5.270;2023-08-01T08:11:00;99980.31;;;24.19;45.20
55656;BME280;41530;52.382;5.270;2023-08-01T08:13:28;99981.13;;;24.19;45.27
55656;BME280;41530;52.382;5.270;2023-08-01T08:15:56;99988.16;;;24.20;45.15
55656;BME280;41530;52.382;5.270;2023-08-01T08:18:25;99992.69;;;24.20;45.23
55656;BME280;41530;52.382;5.270;2023-08-01T08:20:53;99996.00;;;24.22;45.16
55656;BME280;41530;52.382;5.270;2023-08-01T08:23:19;99998.69;;;24.22;45.24
55656;BME280;41530;52.382;5.270;2023-08-01T08:25:46;99991.44;;;24.22;45.12
55656;BME280;41530;52.382;5.270;2023-08-01T08:28:14;99998.28;;;24.25;45.06
55656;BME280;41530;52.382;5.270;2023-08-01T08:30:41;100001.78;;;24.25;45.19
55656;BME280;41530;52.382;5.270;2023-08-01T08:33:07;99999.50;;;24.29;45.19
55656;BME280;41530;52.382;5.270;2023-08-01T08:35:37;99994.13;;;24.29;45.31
55656;BME280;41530;52.382;5.270;2023-08-01T08:38:04;99997.41;;;24.31;45.27
55656;BME280;41530;52.382;5.270;2023-08-01T08:40:33;99999.69;;;24.34;45.05
55656;BME280;41530;52.382;5.270;2023-08-01T08:43:01;100003.19;;;24.34;45.28
55656;BME280;41530;52.382;5.270;2023-08-01T08:45:34;100004.84;;;24.35;45.06
55656;BME280;41530;52.382;5.270;2023-08-01T08:48:09;100003.19;;;24.34;45.05
55656;BME280;41530;52.382;5.270;2023-08-01T08:50:39;100005.88;;;24.34;45.24
55656;BME280;41530;52.382;5.270;2023-08-01T08:53:06;100014.78;;;24.35;45.28
55656;BME280;41530;52.382;5.270;2023-08-01T08:55:40;100022.63;;;24.36;45.14
55656;BME280;41530;52.382;5.270;2023-08-01T08:58:07;100030.69;;;24.36;45.16
55656;BME280;41530;52.382;5.270;2023-08-01T09:00:38;100023.41;;;24.37;45.16
55656;BME280;41530;52.382;5.270;2023-08-01T09:03:05;100018.03;;;24.37;45.29
55656;BME280;41530;52.382;5.270;2023-08-01T09:05:40;100019.25;;;24.41;45.14
55656;BME280;41530;52.382;5.270;2023-08-01T09:08:17;100018.63;;;24.45;45.07
55656;BME280;41530;52.382;5.270;2023-08-01T09:10:45;100024.41;;;24.49;45.29
55656;BME280;41530;52.382;5.270;2023-08-01T09:13:12;100024.16;;;24.50;45.08
55656;BME280;41530;52.382;5.270;2023-08-01T09:15:42;100025.97;;;24.57;44.87
55656;BME280;41530;52.382;5.270;2023-08-01T09:18:10;100019.56;;;24.58;45.06
55656;BME280;41530;52.382;5.270;2023-08-01T09:20:45;100025.13;;;24.63;44.92
55656;BME280;41530;52.382;5.270;2023-08-01T09:23:12;100032.53;;;24.67;44.98
55656;BME280;41530;52.382;5.270;2023-08-01T09:25:39;100032.09;;;24.70;44.98
55656;BME280;41530;52.382;5.270;2023-08-01T09:28:24;100042.00;;;24.76;44.81
55656;BME280;41530;52.382;5.270;2023-08-01T09:30:54;100035.94;;;24.81;44.72
55656;BME280;41530;52.382;5.270;2023-08-01T09:33:22;100024.78;;;24.77;44.87
55656;BME280;41530;52.382;5.270;2023-08-01T09:35:50;100036.94;;;24.86;44.84
55656;BME280;41530;52.382;5.270;2023-08-01T09:38:18;100052.19;;;24.93;45.01
55656;BME280;41530;52.382;5.270;2023-08-01T09:40:45;100049.91;;;24.96;44.94
55656;BME280;41530;52.382;5.270;2023-08-01T09:43:13;100039.75;;;24.98;45.14
55656;BME280;41530;52.382;5.270;2023-08-01T09:45:53;100042.63;;;25.03;44.66
55656;BME280;41530;52.382;5.270;2023-08-01T09:48:25;100048.16;;;25.08;44.75
55656;BME280;41530;52.382;5.270;2023-08-01T09:51:12;100058.28;;;25.13;44.50
55656;BME280;41530;52.382;5.270;2023-08-01T09:56:25;100067.78;;;25.15;44.48
55656;BME280;41530;52.382;5.270;2023-08-01T09:58:53;100064.25;;;25.15;44.75
55656;BME280;41530;52.382;5.270;2023-08-01T10:01:22;100063.44;;;25.14;44.95
55656;BME280;41530;52.382;5.270;2023-08-01T10:03:50;100060.06;;;25.19;44.47
55656;BME280;41530;52.382;5.270;2023-08-01T10:06:19;100077.41;;;25.23;44.61
55656;BME280;41530;52.382;5.270;2023-08-01T10:08:50;100066.44;;;25.25;44.84
55656;BME280;41530;52.382;5.270;2023-08-01T10:11:19;100068.09;;;25.26;44.95
55656;BME280;41530;52.382;5.270;2023-08-01T10:13:46;100064.34;;;25.27;44.69
55656;BME280;41530;52.382;5.270;2023-08-01T10:16:13;100071.53;;;25.33;44.54
55656;BME280;41530;52.382;5.270;2023-08-01T10:18:42;100071.53;;;25.33;44.48
55656;BME280;41530;52.382;5.270;2023-08-01T10:21:12;100075.03;;;25.33;44.24
55656;BME280;41530;52.382;5.270;2023-08-01T10:23:39;100072.00;;;25.30;44.51
55656;BME280;41530;52.382;5.270;2023-08-01T10:26:08;100076.09;;;25.32;44.69
55656;BME280;41530;52.382;5.270;2023-08-01T10:28:37;100083.34;;;25.32;44.56
55656;BME280;41530;52.382;5.270;2023-08-01T10:31:11;100078.34;;;25.35;44.38
55656;BME280;41530;52.382;5.270;2023-08-01T10:33:42;100080.00;;;25.36;44.49
55656;BME280;41530;52.382;5.270;2023-08-01T10:41:39;100095.72;;;25.39;44.16
55656;BME280;41530;52.382;5.270;2023-08-01T10:44:12;100093.63;;;25.41;44.59
55656;BME280;41530;52.382;5.270;2023-08-01T10:46:49;100091.91;;;25.47;44.13
55656;BME280;41530;52.382;5.270;2023-08-01T10:49:17;100088.75;;;25.50;44.21
55656;BME280;41530;52.382;5.270;2023-08-01T10:51:45;100093.72;;;25.53;44.46
55656;BME280;41530;52.382;5.270;2023-08-01T10:54:19;100103.81;;;25.57;43.98
55656;BME280;41530;52.382;5.270;2023-08-01T10:56:49;100101.94;;;25.58;44.19
55656;BME280;41530;52.382;5.270;2023-08-01T10:59:16;100127.59;;;25.61;44.28
55656;BME280;41530;52.382;5.270;2023-08-01T11:01:51;100111.88;;;25.57;44.30
55656;BME280;41530;52.382;5.270;2023-08-01T11:04:22;100120.78;;;25.58;44.19
55656;BME280;41530;52.382;5.270;2023-08-01T11:06:51;100115.66;;;25.56;44.39
55656;BME280;41530;52.382;5.270;2023-08-01T11:09:25;100115.41;;;25.58;44.20
55656;BME280;41530;52.382;5.270;2023-08-01T11:11:55;100117.03;;;25.59;44.64
55656;BME280;41530;52.382;5.270;2023-08-01T11:14:23;100119.97;;;25.57;44.37
55656;BME280;41530;52.382;5.270;2023-08-01T11:16:50;100116.69;;;25.55;44.55
55656;BME280;41530;52.382;5.270;2023-08-01T11:19:22;100125.34;;;25.57;44.69
55656;BME280;41530;52.382;5.270;2023-08-01T11:21:50;100129.13;;;25.56;44.48
55656;BME280;41530;52.382;5.270;2023-08-01T11:24:19;100139.63;;;25.58;44.47
55656;BME280;41530;52.382;5.270;2023-08-01T11:26:48;100133.69;;;25.56;44.63
55656;BME280;41530;52.382;5.270;2023-08-01T11:29:16;100135.53;;;25.55;44.37
55656;BME280;41530;52.382;5.270;2023-08-01T11:31:59;100132.59;;;25.57;44.44
55656;BME280;41530;52.382;5.270;2023-08-01T11:34:26;100144.66;;;25.54;44.70
55656;BME280;41530;52.382;5.270;2023-08-01T11:36:53;100144.44;;;25.56;44.73
55656;BME280;41530;52.382;5.270;2023-08-01T11:39:20;100141.97;;;25.54;44.89
55656;BME280;41530;52.382;5.270;2023-08-01T11:41:49;100154.41;;;25.55;44.56
55656;BME280;41530;52.382;5.270;2023-08-01T11:44:15;100159.78;;;25.55;44.88
55656;BME280;41530;52.382;5.270;2023-08-01T11:46:42;100156.84;;;25.57;44.90
55656;BME280;41530;52.382;5.270;2023-08-01T11:49:13;100157.66;;;25.57;44.66
55656;BME280;41530;52.382;5.270;2023-08-01T11:51:42;100164.13;;;25.56;44.58
55656;BME280;41530;52.382;5.270;2023-08-01T11:54:10;100149.84;;;25.56;44.71
55656;BME280;41530;52.382;5.270;2023-08-01T11:56:39;100168.44;;;25.57;44.84
55656;BME280;41530;52.382;5.270;2023-08-01T11:59:09;100160.16;;;25.59;44.82
55656;BME280;41530;52.382;5.270;2023-08-01T12:01:41;100160.97;;;25.60;44.88
55656;BME280;41530;52.382;5.270;2023-08-01T12:04:08;100160.34;;;25.57;44.99
55656;BME280;41530;52.382;5.270;2023-08-01T12:06:34;100162.63;;;25.61;44.80
55656;BME280;41530;52.382;5.270;2023-08-01T12:09:11;100154.53;;;25.61;44.84
55656;BME280;41530;52.382;5.270;2023-08-01T12:11:39;100177.97;;;25.60;44.98
55656;BME280;41530;52.382;5.270;2023-08-01T12:16:37;100161.59;;;25.62;44.61
55656;BME280;41530;52.382;5.270;2023-08-01T12:19:05;100170.69;;;25.61;45.19
55656;BME280;41530;52.382;5.270;2023-08-01T12:21:33;100172.38;;;25.62;44.80
55656;BME280;41530;52.382;5.270;2023-08-01T12:24:00;100171.56;;;25.61;44.99
55656;BME280;41530;52.382;5.270;2023-08-01T12:26:27;100170.69;;;25.61;44.92
55656;BME280;41530;52.382;5.270;2023-08-01T12:28:54;100177.56;;;25.63;45.26
55656;BME280;41530;52.382;5.270;2023-08-01T12:31:22;100177.56;;;25.63;44.97
55656;BME280;41530;52.382;5.270;2023-08-01T12:33:49;100181.28;;;25.62;45.20
55656;BME280;41530;52.382;5.270;2023-08-01T12:36:16;100177.56;;;25.63;44.89
55656;BME280;41530;52.382;5.270;2023-08-01T12:38:43;100177.78;;;25.62;44.94
55656;BME280;41530;52.382;5.270;2023-08-01T12:41:09;100180.84;;;25.65;45.22
55656;BME280;41530;52.382;5.270;2023-08-01T12:43:36;100183.56;;;25.65;44.79
55656;BME280;41530;52.382;5.270;2023-08-01T12:46:03;100178.97;;;25.66;44.84
55656;BME280;41530;52.382;5.270;2023-08-01T12:48:30;100171.13;;;25.64;44.95
55656;BME280;41530;52.382;5.270;2023-08-01T12:50:57;100178.16;;;25.65;45.06
55656;BME280;41530;52.382;5.270;2023-08-01T12:53:23;100178.16;;;25.65;44.93
55656;BME280;41530;52.382;5.270;2023-08-01T12:55:51;100176.06;;;25.67;44.98
55656;BME280;41530;52.382;5.270;2023-08-01T12:58:18;100190.38;;;25.68;45.06
55656;BME280;41530;52.382;5.270;2023-08-01T13:00:45;100190.38;;;25.68;45.13
55656;BME280;41530;52.382;5.270;2023-08-01T13:03:12;100192.03;;;25.69;44.93
55656;BME280;41530;52.382;5.270;2023-08-01T13:05:40;100195.53;;;25.69;45.16
55656;BME280;41530;52.382;5.270;2023-08-01T13:08:08;100192.84;;;25.69;45.26
55656;BME280;41530;52.382;5.270;2023-08-01T13:10:37;100195.28;;;25.71;45.20